createdAt,value
2019-01-23T00:01:03.441Z,28.53
2019-01-23T00:03:51.138Z,27.60
2019-01-23T00:06:38.888Z,27.63
2019-01-23T00:09:27.042Z,26.70
2019-01-23T00:12:15.108Z,25.57
2019-01-23T00:15:03.068Z,28.97
2019-01-23T00:17:51.284Z,28.13
2019-01-23T00:20:39.481Z,26.87
2019-01-23T00:23:27.052Z,26.33
2019-01-23T00:26:14.866Z,25.83
2019-01-23T00:29:02.733Z,26.73
2019-01-23T00:31:50.751Z,28.47
2019-01-23T00:34:38.759Z,27.80
2019-01-23T00:37:26.610Z,25.00
2019-01-23T00:40:14.774Z,26.20
2019-01-23T00:43:03.001Z,24.40
2019-01-23T00:45:50.960Z,24.97
2019-01-23T00:48:38.936Z,25.50
2019-01-23T00:51:26.822Z,26.50
2019-01-23T00:54:14.757Z,26.03
2019-01-23T00:57:02.392Z,25.70
2019-01-23T00:59:50.235Z,28.30
2019-01-23T01:02:38.092Z,28.30
2019-01-23T01:05:25.924Z,28.73
2019-01-23T01:08:14.149Z,28.40
2019-01-23T01:11:01.849Z,30.80
2019-01-23T01:13:49.675Z,28.70
2019-01-23T01:16:37.394Z,27.43
2019-01-23T01:19:25.473Z,29.53
2019-01-23T01:22:13.621Z,29.50
2019-01-23T01:25:01.121Z,29.40
2019-01-23T01:27:48.902Z,27.87
2019-01-23T01:30:37.071Z,28.67
2019-01-23T01:33:25.174Z,28.40
2019-01-23T01:36:13.021Z,28.70
2019-01-23T01:39:00.707Z,27.93
2019-01-23T01:41:48.803Z,30.07
2019-01-23T01:44:36.535Z,29.60
2019-01-23T01:47:24.587Z,29.00
2019-01-23T01:50:17.706Z,27.97
2019-01-23T01:53:05.991Z,27.30
2019-01-23T01:55:53.665Z,29.53
2019-01-23T01:58:41.956Z,28.17
2019-01-23T02:01:30.066Z,26.03
2019-01-23T02:04:18.034Z,28.13
2019-01-23T02:07:05.919Z,27.90
2019-01-23T02:09:54.077Z,26.93
2019-01-23T02:12:42.089Z,28.37
2019-01-23T02:15:30.039Z,27.83
2019-01-23T02:18:18.219Z,26.97
2019-01-23T02:21:06.646Z,27.03
2019-01-23T02:23:54.577Z,28.30
2019-01-23T02:26:42.664Z,29.63
2019-01-23T02:29:30.640Z,28.67
2019-01-23T02:32:18.508Z,28.10
2019-01-23T02:35:07.296Z,27.67
2019-01-23T02:37:55.450Z,25.33
2019-01-23T02:40:43.491Z,25.17
2019-01-23T02:43:31.378Z,25.23
2019-01-23T02:46:19.565Z,25.33
2019-01-23T02:49:07.410Z,22.73
2019-01-23T02:51:55.273Z,23.40
2019-01-23T02:54:42.899Z,23.03
2019-01-23T02:57:30.725Z,22.87
2019-01-23T03:00:20.119Z,21.03
2019-01-23T03:03:08.035Z,20.83
2019-01-23T03:05:56.105Z,22.63
2019-01-23T03:08:43.923Z,23.20
2019-01-23T03:11:31.986Z,21.03
2019-01-23T03:14:20.144Z,24.77
2019-01-23T03:17:08.115Z,22.53
2019-01-23T03:19:55.792Z,21.70
2019-01-23T03:22:43.695Z,20.53
2019-01-23T03:25:31.489Z,25.20
2019-01-23T03:28:19.624Z,23.07
2019-01-23T03:31:07.450Z,25.77
2019-01-23T03:33:55.611Z,23.87
2019-01-23T03:36:43.428Z,25.93
2019-01-23T03:39:31.256Z,26.40
2019-01-23T03:42:19.197Z,24.73
2019-01-23T03:45:08.884Z,25.73
2019-01-23T03:47:56.686Z,26.47
2019-01-23T03:50:44.204Z,25.63
2019-01-23T03:53:32.471Z,25.70
2019-01-23T03:56:20.470Z,24.60
2019-01-23T03:59:08.735Z,23.10
2019-01-23T04:01:56.665Z,25.03
2019-01-23T04:04:44.629Z,26.03
2019-01-23T04:07:32.432Z,23.00
2019-01-23T04:10:20.159Z,25.57
2019-01-23T04:13:08.400Z,23.47
2019-01-23T04:15:56.481Z,26.67
2019-01-23T04:18:44.623Z,23.93
2019-01-23T04:21:32.168Z,24.10
2019-01-23T04:24:20.531Z,24.80
2019-01-23T04:27:08.269Z,23.07
2019-01-23T04:29:56.118Z,25.30
2019-01-23T04:32:44.265Z,22.20
2019-01-23T04:35:32.508Z,22.87
2019-01-23T04:38:21.095Z,25.13
2019-01-23T04:41:08.843Z,22.23
2019-01-23T04:43:57.412Z,21.70
2019-01-23T04:46:45.199Z,21.50
2019-01-23T04:49:34.895Z,20.97
2019-01-23T04:52:40.280Z,22.67
2019-01-23T04:55:28.338Z,22.90
2019-01-23T04:58:16.166Z,20.90
2019-01-23T05:01:04.376Z,23.27
2019-01-23T05:03:52.450Z,22.10
2019-01-23T05:06:40.251Z,24.17
2019-01-23T05:09:29.366Z,22.67
2019-01-23T05:12:17.325Z,23.30
2019-01-23T05:15:06.359Z,23.67
2019-01-23T05:17:54.582Z,23.33
2019-01-23T05:20:42.615Z,22.47
2019-01-23T05:23:30.543Z,22.73
2019-01-23T05:26:18.170Z,23.03
2019-01-23T05:29:06.545Z,22.87
2019-01-23T05:31:54.328Z,23.70
2019-01-23T05:34:42.088Z,23.80
2019-01-23T05:37:30.022Z,21.83
2019-01-23T05:40:18.329Z,21.97
2019-01-23T05:43:06.145Z,23.60
2019-01-23T05:45:54.074Z,22.33
2019-01-23T05:48:42.151Z,22.27
2019-01-23T05:51:30.540Z,23.43
2019-01-23T05:54:18.373Z,22.97
2019-01-23T05:57:06.661Z,22.83
2019-01-23T06:00:02.082Z,22.60
2019-01-23T06:02:44.419Z,21.43
2019-01-23T06:05:32.331Z,22.40
2019-01-23T06:08:20.233Z,21.63
2019-01-23T06:11:08.070Z,22.80
2019-01-23T06:13:56.110Z,20.90
2019-01-23T06:16:43.905Z,21.60
2019-01-23T06:19:31.634Z,20.80
2019-01-23T06:22:19.186Z,19.73
2019-01-23T06:25:07.672Z,20.73
2019-01-23T06:27:55.478Z,17.43
2019-01-23T06:30:43.349Z,16.13
2019-01-23T06:33:31.467Z,17.73
2019-01-23T06:36:19.466Z,15.70
2019-01-23T06:39:08.932Z,15.50
2019-01-23T06:41:57.228Z,15.43
2019-01-23T06:44:45.534Z,13.77
2019-01-23T06:47:33.458Z,13.77
2019-01-23T06:50:22.881Z,13.13
2019-01-23T06:53:14.102Z,13.57
2019-01-23T06:56:00.409Z,15.50
2019-01-23T06:58:48.708Z,14.20
2019-01-23T07:01:36.583Z,14.23
2019-01-23T07:04:24.754Z,13.70
2019-01-23T07:07:12.651Z,13.13
2019-01-23T07:10:00.957Z,13.20
2019-01-23T07:12:48.556Z,13.70
2019-01-23T07:15:36.436Z,15.23
2019-01-23T07:18:24.454Z,14.23
2019-01-23T07:21:12.696Z,13.60
2019-01-23T07:24:01.014Z,14.27
2019-01-23T07:26:49.046Z,13.67
2019-01-23T07:29:36.884Z,14.80
2019-01-23T07:32:24.910Z,13.03
2019-01-23T07:35:12.476Z,14.43
2019-01-23T07:38:00.496Z,15.43
2019-01-23T07:40:48.549Z,14.33
2019-01-23T07:43:36.502Z,13.53
2019-01-23T07:46:24.405Z,14.73
2019-01-23T07:49:12.759Z,13.63
2019-01-23T07:52:00.770Z,14.67
2019-01-23T07:54:48.666Z,14.83
2019-01-23T07:57:39.104Z,13.50
2019-01-23T08:00:31.579Z,14.03
2019-01-23T08:03:17.484Z,13.90
2019-01-23T08:06:05.444Z,14.50
2019-01-23T08:08:53.178Z,13.80
2019-01-23T08:11:41.560Z,14.03
2019-01-23T08:14:29.608Z,14.03
2019-01-23T08:17:17.649Z,13.40
2019-01-23T08:20:07.439Z,14.70
2019-01-23T08:22:55.522Z,15.80
2019-01-23T08:25:43.686Z,16.43
2019-01-23T08:28:31.657Z,18.60
2019-01-23T08:31:19.536Z,18.77
2019-01-23T08:34:07.866Z,17.07
2019-01-23T08:36:55.980Z,17.70
2019-01-23T08:39:44.052Z,15.33
2019-01-23T08:42:31.798Z,14.90
2019-01-23T08:45:19.923Z,14.73
2019-01-23T08:48:07.741Z,15.07
2019-01-23T08:50:55.333Z,15.33
2019-01-23T08:53:43.333Z,13.80
2019-01-23T08:56:31.505Z,16.40
2019-01-23T08:59:19.381Z,18.23
2019-01-23T09:02:07.449Z,18.70
2019-01-23T09:04:55.568Z,17.63
2019-01-23T09:07:43.925Z,15.57
2019-01-23T09:10:31.969Z,16.60
2019-01-23T09:13:20.068Z,15.37
2019-01-23T09:16:07.672Z,11.97
2019-01-23T09:18:55.910Z,12.17
2019-01-23T09:21:44.159Z,12.20
2019-01-23T09:24:32.541Z,11.77
2019-01-23T09:27:19.980Z,10.27
2019-01-23T09:30:13.289Z,13.10
2019-01-23T09:33:40.266Z,10.73
2019-01-23T09:37:01.700Z,9.67
2019-01-23T09:40:34.073Z,10.37
2019-01-23T09:44:14.292Z,10.30
2019-01-23T09:47:36.405Z,9.90
2019-01-23T09:50:44.107Z,11.27
2019-01-23T09:53:46.492Z,15.97
2019-01-23T09:56:34.373Z,11.97
2019-01-23T09:59:22.397Z,12.73
2019-01-23T10:02:10.239Z,14.40
2019-01-23T10:04:58.365Z,16.87
2019-01-23T10:07:46.346Z,14.73
2019-01-23T10:10:34.150Z,10.37
2019-01-23T10:13:21.966Z,16.93
2019-01-23T10:16:15.951Z,18.80
2019-01-23T10:19:03.474Z,18.13
2019-01-23T10:21:51.566Z,17.63
2019-01-23T10:24:39.808Z,18.47
2019-01-23T10:27:28.053Z,19.43
2019-01-23T10:30:16.127Z,18.00
2019-01-23T10:33:04.151Z,18.67
2019-01-23T10:35:52.289Z,17.33
2019-01-23T10:38:40.231Z,18.37
2019-01-23T10:41:28.253Z,18.03
2019-01-23T10:44:16.355Z,16.70
2019-01-23T10:47:04.402Z,17.80
2019-01-23T10:49:52.477Z,17.87
2019-01-23T10:52:40.102Z,18.50
2019-01-23T10:55:28.536Z,17.33
2019-01-23T10:58:16.350Z,19.87
2019-01-23T11:01:04.053Z,18.37
2019-01-23T11:03:52.175Z,17.70
2019-01-23T11:06:39.825Z,18.87
2019-01-23T11:09:28.035Z,18.90
2019-01-23T11:12:15.915Z,17.50
2019-01-23T11:15:04.156Z,17.30
2019-01-23T11:17:52.303Z,19.07
2019-01-23T11:20:40.672Z,19.63
2019-01-23T11:23:28.695Z,19.73
2019-01-23T11:26:16.788Z,19.30
2019-01-23T11:29:04.908Z,19.97
2019-01-23T11:31:53.048Z,19.27
2019-01-23T11:34:41.234Z,20.03
2019-01-23T11:37:28.897Z,19.60
2019-01-23T11:40:25.787Z,19.10
2019-01-23T11:43:13.585Z,19.27
2019-01-23T11:46:01.399Z,18.57
2019-01-23T11:48:49.697Z,18.63
2019-01-23T11:51:37.902Z,18.30
2019-01-23T11:54:25.927Z,19.20
2019-01-23T11:57:14.094Z,18.03
2019-01-23T12:00:01.993Z,19.93
2019-01-23T12:02:50.304Z,18.43
2019-01-23T12:05:38.355Z,18.80
2019-01-23T12:08:25.873Z,18.33
2019-01-23T12:11:13.867Z,19.23
2019-01-23T12:14:01.842Z,18.23
2019-01-23T12:16:49.727Z,19.07
2019-01-23T12:19:37.257Z,17.50
2019-01-23T12:22:25.095Z,19.40
2019-01-23T12:25:12.943Z,19.40
2019-01-23T12:28:00.742Z,20.90
2019-01-23T12:30:48.553Z,20.50
2019-01-23T12:33:37.278Z,22.87
2019-01-23T12:36:25.248Z,20.37
2019-01-23T12:39:13.324Z,21.00
2019-01-23T12:42:01.428Z,22.23
2019-01-23T12:44:49.622Z,21.50
2019-01-23T12:47:38.221Z,22.20
2019-01-23T12:50:28.361Z,21.13
2019-01-23T12:53:16.701Z,21.60
2019-01-23T12:56:05.185Z,21.10
2019-01-23T12:58:53.398Z,20.93
2019-01-23T13:01:42.181Z,20.17
2019-01-23T13:04:30.118Z,20.40
2019-01-23T13:07:18.241Z,20.97
2019-01-23T13:10:09.064Z,21.07
2019-01-23T13:12:56.992Z,20.17
2019-01-23T13:15:45.286Z,18.90
2019-01-23T13:18:33.201Z,20.27
2019-01-23T13:21:20.809Z,20.53
2019-01-23T13:24:09.147Z,20.23
2019-01-23T13:26:57.226Z,20.60
2019-01-23T13:29:45.379Z,21.73
2019-01-23T13:32:33.546Z,21.17
2019-01-23T13:35:23.591Z,20.60
2019-01-23T13:38:14.806Z,19.20
2019-01-23T13:41:03.351Z,20.80
2019-01-23T13:43:51.278Z,19.57
2019-01-23T13:46:39.548Z,21.43
2019-01-23T13:49:27.617Z,18.80
2019-01-23T13:52:15.500Z,18.77
2019-01-23T13:55:03.619Z,21.07
2019-01-23T13:57:51.871Z,19.57
2019-01-23T14:00:41.157Z,19.80
2019-01-23T14:03:29.319Z,18.97
2019-01-23T14:06:17.341Z,19.00
2019-01-23T14:09:07.396Z,19.33
2019-01-23T14:11:54.952Z,19.23
2019-01-23T14:14:43.199Z,19.83
2019-01-23T14:17:31.279Z,19.77
2019-01-23T14:20:19.316Z,18.87
2019-01-23T14:23:07.620Z,19.83
2019-01-23T14:25:55.470Z,19.37
2019-01-23T14:28:43.742Z,23.13
2019-01-23T14:31:32.020Z,19.93
2019-01-23T14:34:19.873Z,22.47
2019-01-23T14:37:07.794Z,21.57
2019-01-23T14:39:57.148Z,21.80
2019-01-23T14:42:45.381Z,18.67
2019-01-23T14:45:33.467Z,22.93
2019-01-23T14:48:21.696Z,21.53
2019-01-23T14:51:09.431Z,23.47
2019-01-23T14:53:57.527Z,22.33
2019-01-23T14:56:45.937Z,23.37
2019-01-23T14:59:33.831Z,22.00
2019-01-23T15:02:22.070Z,24.37
2019-01-23T15:05:10.204Z,20.93
2019-01-23T15:07:58.653Z,22.93
2019-01-23T15:10:46.543Z,24.13
2019-01-23T15:13:34.755Z,23.40
2019-01-23T15:16:23.043Z,23.23
2019-01-23T15:19:10.672Z,24.33
2019-01-23T15:21:58.145Z,25.13
2019-01-23T15:24:46.633Z,24.30
2019-01-23T15:27:34.909Z,23.03
2019-01-23T15:30:24.088Z,23.33
2019-01-23T15:33:12.206Z,23.13
2019-01-23T15:36:03.160Z,23.27
2019-01-23T15:38:51.316Z,20.87
2019-01-23T15:41:39.211Z,22.80
2019-01-23T15:44:27.322Z,23.63
2019-01-23T15:47:15.270Z,24.27
2019-01-23T15:50:03.843Z,22.03
2019-01-23T15:52:51.754Z,23.13
2019-01-23T15:55:40.301Z,26.13
2019-01-23T15:58:27.911Z,25.03
2019-01-23T16:01:15.929Z,22.67
2019-01-23T16:04:03.798Z,25.70
2019-01-23T16:06:52.044Z,24.23
2019-01-23T16:09:39.966Z,25.90
2019-01-23T16:12:27.494Z,23.93
2019-01-23T16:15:16.519Z,26.70
2019-01-23T16:18:05.102Z,27.00
2019-01-23T16:20:53.022Z,24.87
2019-01-23T16:23:41.319Z,27.50
2019-01-23T16:26:29.213Z,28.70
2019-01-23T16:29:17.272Z,27.33
2019-01-23T16:32:05.349Z,28.73
2019-01-23T16:34:53.520Z,29.40
2019-01-23T16:37:41.441Z,28.47
2019-01-23T16:40:29.720Z,25.30
2019-01-23T16:43:17.976Z,28.63
2019-01-23T16:46:05.943Z,29.70
2019-01-23T16:48:53.940Z,30.00
2019-01-23T16:51:42.187Z,27.60
2019-01-23T16:54:30.193Z,31.40
2019-01-23T16:57:17.763Z,30.50
2019-01-23T17:00:07.425Z,30.10
2019-01-23T17:02:55.768Z,29.43
2019-01-23T17:05:43.707Z,28.70
2019-01-23T17:08:31.567Z,37.53
2019-01-23T17:11:19.840Z,28.40
2019-01-23T17:14:07.772Z,31.90
2019-01-23T17:16:55.832Z,32.67
2019-01-23T17:19:43.640Z,30.63
2019-01-23T17:22:31.671Z,110.07
2019-01-23T17:25:19.478Z,30.07
2019-01-23T17:28:09.126Z,29.90
2019-01-23T17:30:57.237Z,21.13
2019-01-23T17:33:45.410Z,29.97
2019-01-23T17:36:33.671Z,31.07
2019-01-23T17:39:21.449Z,30.97
2019-01-23T17:42:09.604Z,31.37
2019-01-23T17:44:57.480Z,29.13
2019-01-23T17:47:45.573Z,29.90
2019-01-23T17:50:33.463Z,30.10
2019-01-23T17:53:21.487Z,28.97
2019-01-23T17:56:09.158Z,29.93
2019-01-23T17:58:57.040Z,29.50
2019-01-23T18:01:45.066Z,28.23
2019-01-23T18:04:33.547Z,29.90
2019-01-23T18:07:21.621Z,30.17
2019-01-23T18:10:09.633Z,29.37
2019-01-23T18:12:57.833Z,26.77
2019-01-23T18:15:46.146Z,28.53
2019-01-23T18:18:34.084Z,28.07
2019-01-23T18:21:22.329Z,29.07
2019-01-23T18:24:10.143Z,29.67
2019-01-23T18:26:58.366Z,31.43
2019-01-23T18:29:46.788Z,28.13
2019-01-23T18:32:34.924Z,30.70
2019-01-23T18:36:07.830Z,30.53
2019-01-23T18:39:30.169Z,28.40
2019-01-23T18:42:55.654Z,26.83
2019-01-23T18:46:20.204Z,30.10
2019-01-23T18:49:28.064Z,28.00
2019-01-23T18:52:16.193Z,28.33
2019-01-23T18:55:05.048Z,28.37
2019-01-23T18:57:53.022Z,29.93
2019-01-23T19:00:40.773Z,28.33
2019-01-23T19:03:28.916Z,29.73
2019-01-23T19:06:17.035Z,29.57
2019-01-23T19:09:07.999Z,27.73
2019-01-23T19:11:55.513Z,29.40
2019-01-23T19:14:43.841Z,30.73
2019-01-23T19:17:31.792Z,27.40
2019-01-23T19:20:20.907Z,29.27
2019-01-23T19:23:08.912Z,28.40
2019-01-23T19:25:56.862Z,28.37
2019-01-23T19:28:45.091Z,28.60
2019-01-23T19:31:32.984Z,27.73
2019-01-23T19:34:21.352Z,28.27
2019-01-23T19:37:09.368Z,29.20
2019-01-23T19:39:57.040Z,26.23
2019-01-23T19:42:45.370Z,27.53
2019-01-23T19:45:33.237Z,27.97
2019-01-23T19:48:21.206Z,29.47
2019-01-23T19:51:09.048Z,28.93
2019-01-23T19:53:56.854Z,30.67
2019-01-23T19:56:44.883Z,30.50
2019-01-23T19:59:32.828Z,26.33
2019-01-23T20:02:21.194Z,27.63
2019-01-23T20:05:11.423Z,28.90
2019-01-23T20:07:59.601Z,26.20
2019-01-23T20:10:47.806Z,26.60
2019-01-23T20:13:35.528Z,26.73
2019-01-23T20:16:23.436Z,30.17
2019-01-23T20:19:14.061Z,26.07
2019-01-23T20:22:02.571Z,27.40
2019-01-23T20:24:50.346Z,27.87
2019-01-23T20:27:38.434Z,26.80
2019-01-23T20:30:32.462Z,26.57
2019-01-23T20:33:27.683Z,26.97
2019-01-23T20:36:10.410Z,27.50
2019-01-23T20:38:58.326Z,27.57
2019-01-23T20:41:46.392Z,26.10
2019-01-23T20:44:34.332Z,28.60
2019-01-23T20:47:22.367Z,28.00
2019-01-23T20:50:14.744Z,27.10
2019-01-23T20:53:03.166Z,28.10
2019-01-23T20:55:51.376Z,28.90
2019-01-23T20:58:39.426Z,28.83
2019-01-23T21:01:27.451Z,28.20
2019-01-23T21:04:15.732Z,29.43
2019-01-23T21:07:04.083Z,29.97
2019-01-23T21:09:51.946Z,26.80
2019-01-23T21:12:40.359Z,25.50
2019-01-23T21:15:32.520Z,26.93
2019-01-23T21:18:20.569Z,28.23
2019-01-23T21:21:08.610Z,28.03
2019-01-23T21:23:56.457Z,29.33
2019-01-23T21:26:44.292Z,26.50
2019-01-23T21:29:32.359Z,26.17
2019-01-23T21:32:20.612Z,28.03
2019-01-23T21:35:08.915Z,27.87
2019-01-23T21:37:56.543Z,26.20
2019-01-23T21:40:44.674Z,27.67
2019-01-23T21:43:32.869Z,25.87
2019-01-23T21:46:20.770Z,24.40
2019-01-23T21:49:08.836Z,25.73
2019-01-23T21:51:56.987Z,28.07
2019-01-23T21:54:45.120Z,27.97
2019-01-23T21:57:32.992Z,26.00
2019-01-23T22:00:33.013Z,28.80
2019-01-23T22:03:20.999Z,26.73
2019-01-23T22:06:10.121Z,27.23
2019-01-23T22:08:57.886Z,27.07
2019-01-23T22:11:45.748Z,25.50
2019-01-23T22:14:33.967Z,27.30
2019-01-23T22:17:21.603Z,25.60
2019-01-23T22:20:12.086Z,26.30
2019-01-23T22:22:59.894Z,26.57
2019-01-23T22:25:48.075Z,25.33
2019-01-23T22:28:36.513Z,26.27
2019-01-23T22:31:24.600Z,24.03
2019-01-23T22:34:12.545Z,25.47
2019-01-23T22:37:00.778Z,26.67
2019-01-23T22:39:49.706Z,26.90
2019-01-23T22:42:37.974Z,26.60
2019-01-23T22:45:25.742Z,28.53
2019-01-23T22:48:13.645Z,27.43
2019-01-23T22:51:01.872Z,25.33
2019-01-23T22:53:50.058Z,27.27
2019-01-23T22:56:38.105Z,24.97
2019-01-23T22:59:25.941Z,26.70
2019-01-23T23:02:14.131Z,28.27
2019-01-23T23:05:02.050Z,26.57
2019-01-23T23:07:50.385Z,26.23
2019-01-23T23:10:38.481Z,29.70
2019-01-23T23:13:26.782Z,28.07
2019-01-23T23:16:15.042Z,25.47
2019-01-23T23:19:02.842Z,28.43
2019-01-23T23:21:50.940Z,28.50
2019-01-23T23:24:39.061Z,27.57
2019-01-23T23:27:27.522Z,27.07
2019-01-23T23:30:15.928Z,27.93
2019-01-23T23:33:03.666Z,27.97
2019-01-23T23:35:51.656Z,27.60
2019-01-23T23:38:39.486Z,27.63
2019-01-23T23:41:27.581Z,29.53
2019-01-23T23:44:15.441Z,29.87
2019-01-23T23:47:03.494Z,28.73
2019-01-23T23:49:51.626Z,27.77
2019-01-23T23:52:39.418Z,29.80
2019-01-23T23:55:27.224Z,29.17
2019-01-23T23:58:15.022Z,29.27
